createdAt,value
2018-02-12T00:02:17.110Z,100191.24
2018-02-12T00:04:43.065Z,100189.75
2018-02-12T00:07:09.135Z,100194.47
2018-02-12T00:09:35.157Z,100191.15
2018-02-12T00:12:01.078Z,100197.33
2018-02-12T00:14:27.029Z,100196.42
2018-02-12T00:16:53.005Z,100198.64
2018-02-12T00:19:18.937Z,100199.87
2018-02-12T00:21:44.949Z,100207.71
2018-02-12T00:24:10.906Z,100207.57
2018-02-12T00:26:36.856Z,100211.28
2018-02-12T00:29:02.830Z,100212.38
2018-02-12T00:31:28.782Z,100218.38
2018-02-12T00:33:54.737Z,100215.93
2018-02-12T00:36:20.678Z,100218.39
2018-02-12T00:38:46.640Z,100221.14
2018-02-12T00:41:13.152Z,100222.08
2018-02-12T00:43:39.104Z,100223.64
2018-02-12T00:46:05.049Z,100223.91
2018-02-12T00:48:31.028Z,100225.76
2018-02-12T00:50:56.967Z,100234.89
2018-02-12T00:53:22.913Z,100236.61
2018-02-12T00:55:48.886Z,100242.73
2018-02-12T00:58:14.846Z,100239.77
2018-02-12T01:00:40.869Z,100241.00
2018-02-12T01:03:06.806Z,100244.77
2018-02-12T01:05:32.752Z,100247.45
2018-02-12T01:07:58.697Z,100245.69
2018-02-12T01:10:24.706Z,100251.14
2018-02-12T01:12:50.650Z,100253.86
2018-02-12T01:15:16.665Z,100252.69
2018-02-12T01:17:42.616Z,100257.68
2018-02-12T01:20:08.574Z,100256.20
2018-02-12T01:22:34.533Z,100264.28
2018-02-12T01:25:00.502Z,100260.86
2018-02-12T01:27:26.457Z,100262.94
2018-02-12T01:29:52.406Z,100273.30
2018-02-12T01:32:18.373Z,100275.50
2018-02-12T01:34:44.317Z,100278.16
2018-02-12T01:37:10.260Z,100272.84
2018-02-12T01:39:36.206Z,100270.87
2018-02-12T01:42:02.149Z,100277.80
2018-02-12T01:44:28.177Z,100291.37
2018-02-12T01:46:54.120Z,100287.14
2018-02-12T01:49:20.086Z,100282.66
2018-02-12T01:51:46.028Z,100298.03
2018-02-12T01:54:12.056Z,100293.67
2018-02-12T01:56:38.018Z,100296.58
2018-02-12T01:59:03.965Z,100295.20
2018-02-12T02:01:29.905Z,100299.86
2018-02-12T02:03:55.856Z,100299.23
2018-02-12T02:06:21.824Z,100309.15
2018-02-12T02:08:47.792Z,100304.22
2018-02-12T02:11:13.744Z,100306.66
2018-02-12T02:13:39.698Z,100304.36
2018-02-12T02:16:05.644Z,100302.11
2018-02-12T02:18:31.633Z,100312.12
2018-02-12T02:20:57.596Z,100319.30
2018-02-12T02:23:23.556Z,100315.16
2018-02-12T02:25:49.613Z,100315.70
2018-02-12T02:28:15.566Z,100320.66
2018-02-12T02:30:41.526Z,100313.29
2018-02-12T02:33:07.481Z,100311.63
2018-02-12T02:35:33.433Z,100321.50
2018-02-12T02:37:59.401Z,100325.43
2018-02-12T02:40:25.342Z,100327.92
2018-02-12T02:42:51.289Z,100323.84
2018-02-12T02:45:17.226Z,100325.86
2018-02-12T02:47:43.261Z,100323.59
2018-02-12T02:50:09.218Z,100323.09
2018-02-12T02:52:35.166Z,100320.78
2018-02-12T02:55:01.108Z,100329.27
2018-02-12T02:57:27.057Z,100321.70
2018-02-12T02:59:53.042Z,100323.59
2018-02-12T03:02:19.140Z,100330.22
2018-02-12T03:04:45.092Z,100324.22
2018-02-12T03:07:11.032Z,100327.92
2018-02-12T03:09:36.977Z,100323.91
2018-02-12T03:12:02.937Z,100329.59
2018-02-12T03:14:28.881Z,100338.09
2018-02-12T03:16:54.854Z,100339.70
2018-02-12T03:19:20.796Z,100338.98
2018-02-12T03:21:46.737Z,100340.97
2018-02-12T03:24:12.694Z,100346.92
2018-02-12T03:26:38.630Z,100351.63
2018-02-12T03:29:04.570Z,100346.91
2018-02-12T03:31:30.533Z,100355.37
2018-02-12T03:33:56.498Z,100360.47
2018-02-12T03:36:22.445Z,100364.31
2018-02-12T03:38:48.437Z,100366.52
2018-02-12T03:41:14.398Z,100365.90
2018-02-12T03:43:40.340Z,100373.63
2018-02-12T03:46:06.329Z,100381.66
2018-02-12T03:48:32.277Z,100377.53
2018-02-12T03:50:58.221Z,100380.41
2018-02-12T03:53:24.258Z,100385.48
2018-02-12T03:55:50.205Z,100389.72
2018-02-12T03:58:16.165Z,100391.91
2018-02-12T04:00:42.128Z,100394.77
2018-02-12T04:03:08.113Z,100397.84
2018-02-12T04:05:34.181Z,100397.27
2018-02-12T04:08:00.141Z,100399.81
2018-02-12T04:10:26.172Z,100398.80
2018-02-12T04:12:52.121Z,100401.09
2018-02-12T04:15:18.077Z,100403.19
2018-02-12T04:17:44.026Z,100409.03
2018-02-12T04:20:09.981Z,100414.44
2018-02-12T04:22:36.026Z,100407.36
2018-02-12T04:25:01.990Z,100413.03
2018-02-12T04:27:27.941Z,100413.45
2018-02-12T04:29:53.893Z,100420.36
2018-02-12T04:32:19.836Z,100415.04
2018-02-12T04:34:45.797Z,100424.09
2018-02-12T04:37:11.752Z,100421.77
2018-02-12T04:39:37.688Z,100428.24
2018-02-12T04:42:03.661Z,100430.00
2018-02-12T04:44:29.598Z,100430.82
2018-02-12T04:46:55.558Z,100430.71
2018-02-12T04:49:21.508Z,100434.06
2018-02-12T04:51:47.486Z,100431.95
2018-02-12T04:54:13.420Z,100444.70
2018-02-12T04:56:39.381Z,100447.28
2018-02-12T04:59:05.321Z,100443.76
2018-02-12T05:01:31.370Z,100451.48
2018-02-12T05:03:57.336Z,100449.51
2018-02-12T05:06:23.280Z,100449.98
2018-02-12T05:08:49.240Z,100450.76
2018-02-12T05:11:15.198Z,100456.89
2018-02-12T05:13:41.194Z,100456.20
2018-02-12T05:16:07.133Z,100456.55
2018-02-12T05:18:33.069Z,100461.72
2018-02-12T05:20:59.010Z,100457.28
2018-02-12T05:23:24.969Z,100468.56
2018-02-12T05:25:50.918Z,100473.34
2018-02-12T05:28:16.860Z,100468.89
2018-02-12T05:30:42.809Z,100476.52
2018-02-12T05:33:08.817Z,100474.61
2018-02-12T05:35:34.773Z,100474.77
2018-02-12T05:38:00.776Z,100482.13
2018-02-12T05:40:26.759Z,100475.67
2018-02-12T05:42:52.697Z,100478.62
2018-02-12T05:45:18.637Z,100488.12
2018-02-12T05:47:44.589Z,100483.64
2018-02-12T05:50:10.530Z,100489.30
2018-02-12T05:52:36.483Z,100493.88
2018-02-12T05:55:02.442Z,100497.26
2018-02-12T05:57:28.386Z,100501.00
2018-02-12T05:59:54.352Z,100505.91
2018-02-12T06:02:20.325Z,100509.33
2018-02-12T06:04:46.284Z,100512.27
2018-02-12T06:07:12.518Z,100512.27
2018-02-12T06:09:38.470Z,100514.52
2018-02-12T06:12:04.417Z,100520.62
2018-02-12T06:14:30.349Z,100520.38
2018-02-12T06:16:56.308Z,100529.36
2018-02-12T06:19:22.265Z,100526.23
2018-02-12T06:21:48.197Z,100529.59
2018-02-12T06:24:14.145Z,100533.11
2018-02-12T06:26:40.205Z,100538.33
2018-02-12T06:29:06.149Z,100538.68
2018-02-12T06:31:32.188Z,100552.25
2018-02-12T06:33:58.137Z,100549.83
2018-02-12T06:36:24.069Z,100552.16
2018-02-12T06:38:50.013Z,100557.40
2018-02-12T06:41:15.952Z,100560.09
2018-02-12T06:43:41.896Z,100569.27
2018-02-12T06:46:07.837Z,100578.59
2018-02-12T06:48:33.781Z,100577.00
2018-02-12T06:50:59.721Z,100579.92
2018-02-12T06:53:25.672Z,100583.80
2018-02-12T06:55:51.608Z,100581.03
2018-02-12T06:58:17.588Z,100575.36
2018-02-12T07:00:43.573Z,100584.48
2018-02-12T07:03:09.511Z,100588.02
2018-02-12T07:05:35.461Z,100591.08
2018-02-12T07:08:01.429Z,100596.28
2018-02-12T07:10:27.435Z,100597.66
2018-02-12T07:12:53.378Z,100608.19
2018-02-12T07:15:19.321Z,100603.36
2018-02-12T07:17:45.275Z,100614.28
2018-02-12T07:20:11.258Z,100615.97
2018-02-12T07:22:37.217Z,100629.54
2018-02-12T07:25:03.166Z,100636.34
2018-02-12T07:27:29.106Z,100637.53
2018-02-12T07:29:55.054Z,100634.89
2018-02-12T07:32:21.002Z,100638.36
2018-02-12T07:34:46.974Z,100638.56
2018-02-12T07:37:12.910Z,100636.35
2018-02-12T07:39:38.885Z,100642.02
2018-02-12T07:42:04.951Z,100649.44
2018-02-12T07:44:30.929Z,100649.23
2018-02-12T07:46:56.903Z,100654.24
2018-02-12T07:49:22.853Z,100655.75
2018-02-12T07:51:48.829Z,100657.49
2018-02-12T07:54:14.775Z,100662.19
2018-02-12T07:56:40.775Z,100659.73
2018-02-12T07:59:06.734Z,100668.49
2018-02-12T08:01:32.702Z,100673.23
2018-02-12T08:03:58.644Z,100680.80
2018-02-12T08:06:24.663Z,100672.72
2018-02-12T08:08:50.559Z,100677.96
2018-02-12T08:11:16.526Z,100685.48
2018-02-12T08:13:42.461Z,100685.00
2018-02-12T08:16:08.438Z,100686.61
2018-02-12T08:18:34.490Z,100698.25
2018-02-12T08:21:00.441Z,100704.42
2018-02-12T08:23:26.469Z,100707.77
2018-02-12T08:25:52.410Z,100707.97
2018-02-12T08:28:18.425Z,100718.14
2018-02-12T08:30:44.433Z,100717.52
2018-02-12T08:33:10.475Z,100717.52
2018-02-12T08:35:36.429Z,100719.20
2018-02-12T08:38:02.366Z,100727.31
2018-02-12T08:40:28.318Z,100737.02
2018-02-12T08:42:54.286Z,100726.95
2018-02-12T08:45:20.308Z,100740.81
2018-02-12T08:47:46.364Z,100741.64
2018-02-12T08:50:12.407Z,100746.16
2018-02-12T08:52:38.492Z,100741.44
2018-02-12T08:55:04.410Z,100751.15
2018-02-12T08:57:30.353Z,100759.83
2018-02-12T08:59:56.385Z,100759.88
2018-02-12T09:02:22.414Z,100765.64
2018-02-12T09:04:48.367Z,100773.55
2018-02-12T09:07:14.410Z,100770.20
2018-02-12T09:09:40.383Z,100777.91
2018-02-12T09:12:06.325Z,100785.52
2018-02-12T09:14:32.257Z,100784.00
2018-02-12T09:16:58.200Z,100787.41
2018-02-12T09:19:24.229Z,100787.29
2018-02-12T09:21:50.169Z,100788.16
2018-02-12T09:24:16.113Z,100792.77
2018-02-12T09:26:42.077Z,100806.48
2018-02-12T09:29:08.021Z,100804.75
2018-02-12T09:31:33.989Z,100808.50
2018-02-12T09:33:59.930Z,100812.66
2018-02-12T09:36:25.945Z,100811.00
2018-02-12T09:38:51.864Z,100812.93
2018-02-12T09:41:17.801Z,100812.23
2018-02-12T09:43:43.759Z,100819.52
2018-02-12T09:46:09.700Z,100822.96
2018-02-12T09:48:35.652Z,100827.84
2018-02-12T09:51:01.663Z,100831.01
2018-02-12T09:53:27.612Z,100831.91
2018-02-12T09:55:53.561Z,100836.97
2018-02-12T09:58:19.545Z,100837.13
2018-02-12T10:00:45.566Z,100843.77
2018-02-12T10:03:11.634Z,100838.09
2018-02-12T10:05:37.573Z,100841.55
2018-02-12T10:08:03.569Z,100850.98
2018-02-12T10:10:29.536Z,100850.08
2018-02-12T10:12:55.516Z,100855.55
2018-02-12T10:15:21.635Z,100853.63
2018-02-12T10:17:47.602Z,100857.75
2018-02-12T10:20:13.619Z,100862.66
2018-02-12T10:22:39.581Z,100868.86
2018-02-12T10:25:05.543Z,100876.44
2018-02-12T10:27:31.524Z,100881.11
2018-02-12T10:29:57.471Z,100877.37
2018-02-12T10:32:23.456Z,100887.50
2018-02-12T10:34:49.498Z,100879.67
2018-02-12T10:37:15.561Z,100882.36
2018-02-12T10:39:41.639Z,100885.84
2018-02-12T10:42:07.721Z,100886.96
2018-02-12T10:44:33.701Z,100896.39
2018-02-12T10:46:59.661Z,100893.39
2018-02-12T10:49:25.645Z,100900.27
2018-02-12T10:51:51.596Z,100901.59
2018-02-12T10:54:17.563Z,100903.69
2018-02-12T10:56:43.523Z,100910.28
2018-02-12T10:59:09.492Z,100909.38
2018-02-12T11:01:35.438Z,100905.83
2018-02-12T11:04:01.395Z,100903.60
2018-02-12T11:06:27.381Z,100904.84
2018-02-12T11:08:53.339Z,100910.93
2018-02-12T11:11:19.411Z,100909.06
2018-02-12T11:13:45.402Z,100907.33
2018-02-12T11:16:11.337Z,100909.69
2018-02-12T11:18:37.285Z,100910.89
2018-02-12T11:21:03.335Z,100903.02
2018-02-12T11:23:29.330Z,100910.68
2018-02-12T11:25:56.376Z,100914.77
2018-02-12T11:28:22.332Z,100912.00
2018-02-12T11:30:48.307Z,100917.08
2018-02-12T11:33:14.283Z,100917.91
2018-02-12T11:35:40.239Z,100921.14
2018-02-12T11:38:06.198Z,100916.63
2018-02-12T11:40:32.252Z,100920.83
2018-02-12T11:42:58.199Z,100923.02
2018-02-12T11:45:24.156Z,100924.13
2018-02-12T11:47:50.105Z,100922.68
2018-02-12T11:50:16.036Z,100922.55
2018-02-12T11:52:42.017Z,100921.98
2018-02-12T11:55:07.993Z,100922.06
2018-02-12T11:57:33.968Z,100913.86
2018-02-12T11:59:59.966Z,100913.95
2018-02-12T12:02:25.916Z,100921.03
2018-02-12T12:04:51.882Z,100921.36
2018-02-12T12:07:17.834Z,100924.29
2018-02-12T12:09:43.886Z,100923.72
2018-02-12T12:12:09.827Z,100923.67
2018-02-12T12:14:35.777Z,100923.59
2018-02-12T12:17:01.762Z,100926.72
2018-02-12T12:19:27.704Z,100924.70
2018-02-12T12:21:53.660Z,100923.91
2018-02-12T12:24:19.593Z,100928.48
2018-02-12T12:26:45.564Z,100934.00
2018-02-12T12:29:11.525Z,100929.69
2018-02-12T12:31:37.558Z,100929.16
2018-02-12T12:34:04.156Z,100927.63
2018-02-12T12:36:30.117Z,100922.97
2018-02-12T12:38:56.056Z,100928.24
2018-02-12T12:41:22.021Z,100932.73
2018-02-12T12:43:47.975Z,100934.42
2018-02-12T12:46:13.942Z,100923.72
2018-02-12T12:48:39.910Z,100929.48
2018-02-12T12:51:05.865Z,100928.58
2018-02-12T12:53:31.853Z,100929.69
2018-02-12T12:55:57.817Z,100925.03
2018-02-12T12:58:23.770Z,100932.33
2018-02-12T13:00:49.740Z,100932.61
2018-02-12T13:03:15.696Z,100921.98
2018-02-12T13:05:41.744Z,100930.92
2018-02-12T13:08:07.688Z,100930.72
2018-02-12T13:10:33.640Z,100931.22
2018-02-12T13:12:59.605Z,100939.03
2018-02-12T13:15:25.562Z,100935.58
2018-02-12T13:17:51.573Z,100942.25
2018-02-12T13:20:17.541Z,100936.48
2018-02-12T13:22:43.518Z,100933.77
2018-02-12T13:25:09.479Z,100936.56
2018-02-12T13:27:35.441Z,100936.98
2018-02-12T13:30:01.422Z,100938.44
2018-02-12T13:32:27.377Z,100935.37
2018-02-12T13:34:53.337Z,100936.27
2018-02-12T13:37:19.295Z,100938.56
2018-02-12T13:39:45.276Z,100928.86
2018-02-12T13:42:11.257Z,100932.88
2018-02-12T13:44:37.237Z,100932.45
2018-02-12T13:47:04.063Z,100929.05
2018-02-12T13:49:30.042Z,100927.80
2018-02-12T13:51:56.017Z,100932.19
2018-02-12T13:54:21.977Z,100927.53
2018-02-12T13:56:47.956Z,100926.53
2018-02-12T13:59:13.914Z,100926.08
2018-02-12T14:01:39.866Z,100930.25
2018-02-12T14:04:05.827Z,100931.36
2018-02-12T14:06:31.801Z,100932.94
2018-02-12T14:08:57.769Z,100926.34
2018-02-12T14:11:23.738Z,100925.22
2018-02-12T14:13:49.737Z,100929.47
2018-02-12T14:16:15.713Z,100928.34
2018-02-12T14:18:41.673Z,100927.44
2018-02-12T14:21:07.652Z,100935.70
2018-02-12T14:23:33.616Z,100934.39
2018-02-12T14:25:59.578Z,100932.58
2018-02-12T14:28:25.549Z,100938.23
2018-02-12T14:30:51.500Z,100936.60
2018-02-12T14:33:17.482Z,100940.11
2018-02-12T14:35:43.552Z,100951.03
2018-02-12T14:38:09.496Z,100958.84
2018-02-12T14:40:35.453Z,100963.16
2018-02-12T14:43:01.426Z,100961.67
2018-02-12T14:45:27.394Z,100965.68
2018-02-12T14:47:53.350Z,100982.19
2018-02-12T14:50:19.339Z,101028.41
2018-02-12T14:52:45.287Z,101023.95
2018-02-12T14:55:11.222Z,101036.23
2018-02-12T14:57:37.301Z,101045.56
2018-02-12T15:00:03.242Z,101046.87
2018-02-12T15:02:29.193Z,101047.92
2018-02-12T15:04:55.247Z,101049.69
2018-02-12T15:07:21.205Z,101039.21
2018-02-12T15:09:47.163Z,101018.27
2018-02-12T15:12:13.129Z,101013.31
2018-02-12T15:14:39.103Z,101004.43
2018-02-12T15:17:05.073Z,101005.27
2018-02-12T15:19:31.072Z,101000.75
2018-02-12T15:21:57.505Z,101005.05
2018-02-12T15:24:23.538Z,101006.22
2018-02-12T15:26:49.482Z,101003.58
2018-02-12T15:29:15.438Z,101008.14
2018-02-12T15:31:41.409Z,101010.15
2018-02-12T15:34:07.364Z,101012.34
2018-02-12T15:36:33.636Z,101013.03
2018-02-12T15:38:59.569Z,101020.50
2018-02-12T15:41:25.528Z,101016.25
2018-02-12T15:43:51.486Z,101022.11
2018-02-12T15:46:17.449Z,101023.91
2018-02-12T15:48:43.398Z,101028.17
2018-02-12T15:51:09.346Z,101026.13
2018-02-12T15:53:35.296Z,101033.73
2018-02-12T15:56:01.244Z,101030.33
2018-02-12T15:58:27.215Z,101026.77
2018-02-12T16:00:53.157Z,101023.81
2018-02-12T16:03:19.127Z,101020.06
2018-02-12T16:05:45.070Z,101020.63
2018-02-12T16:08:11.078Z,101023.10
2018-02-12T16:10:37.113Z,101021.34
2018-02-12T16:13:03.061Z,101031.66
2018-02-12T16:15:29.006Z,101030.39
2018-02-12T16:17:54.985Z,101030.86
2018-02-12T16:20:20.944Z,101030.97
2018-02-12T16:22:46.918Z,101027.13
2018-02-12T16:25:12.873Z,101027.19
2018-02-12T16:27:38.872Z,101028.98
2018-02-12T16:30:04.821Z,101030.20
2018-02-12T16:32:30.848Z,101030.47
2018-02-12T16:34:56.817Z,101032.06
2018-02-12T16:37:22.781Z,101031.97
2018-02-12T16:39:48.724Z,101037.77
2018-02-12T16:42:14.686Z,101039.66
2018-02-12T16:44:40.628Z,101037.15
2018-02-12T16:47:06.598Z,101038.40
2018-02-12T16:49:32.557Z,101033.88
2018-02-12T16:51:58.566Z,101037.18
2018-02-12T16:54:24.513Z,101038.57
2018-02-12T16:56:50.489Z,101038.50
2018-02-12T16:59:16.451Z,101039.06
2018-02-12T17:01:42.433Z,101041.11
2018-02-12T17:04:08.396Z,101042.42
2018-02-12T17:06:34.357Z,101039.98
2018-02-12T17:09:00.334Z,101052.94
2018-02-12T17:11:26.277Z,101046.84
2018-02-12T17:13:52.243Z,101047.02
2018-02-12T17:16:18.241Z,101058.67
2018-02-12T17:18:44.189Z,101054.35
2018-02-12T17:21:10.155Z,101059.33
2018-02-12T17:23:36.118Z,101050.75
2018-02-12T17:26:02.110Z,101057.45
2018-02-12T17:28:28.057Z,101059.28
2018-02-12T17:30:54.040Z,101060.62
2018-02-12T17:33:20.001Z,101061.42
2018-02-12T17:35:45.959Z,101060.45
2018-02-12T17:38:11.905Z,101066.16
2018-02-12T17:40:37.871Z,101061.28
2018-02-12T17:43:03.835Z,101066.98
2018-02-12T17:45:29.857Z,101074.58
2018-02-12T17:47:55.821Z,101074.48
2018-02-12T17:50:21.824Z,101073.26
2018-02-12T17:52:47.768Z,101067.70
2018-02-12T17:55:13.710Z,101070.23
2018-02-12T17:57:39.681Z,101077.27
2018-02-12T18:00:05.654Z,101073.97
2018-02-12T18:02:31.622Z,101074.70
2018-02-12T18:04:57.595Z,101081.37
2018-02-12T18:07:23.551Z,101080.72
2018-02-12T18:09:49.504Z,101073.72
2018-02-12T18:12:15.484Z,101086.89
2018-02-12T18:14:41.424Z,101084.21
2018-02-12T18:17:07.387Z,101083.44
2018-02-12T18:19:33.349Z,101092.48
2018-02-12T18:21:59.322Z,101086.19
2018-02-12T18:24:25.273Z,101088.27
2018-02-12T18:26:51.294Z,101085.48
2018-02-12T18:29:17.278Z,101085.19
2018-02-12T18:31:43.246Z,101086.55
2018-02-12T18:34:09.194Z,101088.92
2018-02-12T18:36:35.165Z,101090.61
2018-02-12T18:39:01.114Z,101093.99
2018-02-12T18:41:27.168Z,101101.41
2018-02-12T18:43:53.161Z,101098.02
2018-02-12T18:46:19.100Z,101095.44
2018-02-12T18:48:45.037Z,101095.02
2018-02-12T18:51:11.124Z,101104.05
2018-02-12T18:53:37.082Z,101107.63
2018-02-12T18:56:03.057Z,101097.06
2018-02-12T18:58:29.004Z,101103.95
2018-02-12T19:00:54.950Z,101104.11
2018-02-12T19:03:20.893Z,101105.39
2018-02-12T19:05:46.845Z,101111.74
2018-02-12T19:08:12.810Z,101112.72
2018-02-12T19:10:38.790Z,101106.09
2018-02-12T19:13:04.800Z,101109.51
2018-02-12T19:15:30.736Z,101107.79
2018-02-12T19:17:56.694Z,101112.14
2018-02-12T19:20:22.722Z,101113.92
2018-02-12T19:22:48.731Z,101115.06
2018-02-12T19:25:14.679Z,101116.56
2018-02-12T19:27:40.649Z,101112.91
2018-02-12T19:30:06.607Z,101117.31
2018-02-12T19:32:32.565Z,101118.64
2018-02-12T19:34:58.521Z,101118.94
2018-02-12T19:37:24.497Z,101113.70
2018-02-12T19:39:50.476Z,101114.54
2018-02-12T19:42:16.477Z,101119.36
2018-02-12T19:44:42.446Z,101114.64
2018-02-12T19:47:08.397Z,101117.03
2018-02-12T19:49:34.393Z,101117.59
2018-02-12T19:52:00.334Z,101125.81
2018-02-12T19:54:26.301Z,101122.46
2018-02-12T19:56:52.306Z,101122.61
2018-02-12T19:59:18.240Z,101121.92
2018-02-12T20:01:44.221Z,101119.67
2018-02-12T20:04:10.173Z,101118.31
2018-02-12T20:06:36.142Z,101117.14
2018-02-12T20:09:02.099Z,101122.72
2018-02-12T20:11:28.078Z,101122.46
2018-02-12T20:13:54.014Z,101124.09
2018-02-12T20:16:19.965Z,101121.56
2018-02-12T20:18:45.912Z,101123.78
2018-02-12T20:21:11.878Z,101127.21
2018-02-12T20:23:37.825Z,101126.45
2018-02-12T20:26:03.787Z,101125.06
2018-02-12T20:28:29.770Z,101123.52
2018-02-12T20:30:55.747Z,101125.30
2018-02-12T20:33:21.722Z,101127.81
2018-02-12T20:35:47.677Z,101131.23
2018-02-12T20:38:13.630Z,101126.81
2018-02-12T20:40:39.583Z,101135.17
2018-02-12T20:43:05.544Z,101131.34
2018-02-12T20:45:31.506Z,101137.66
2018-02-12T20:47:57.444Z,101137.24
2018-02-12T20:50:23.422Z,101138.61
2018-02-12T20:52:49.597Z,101138.98
2018-02-12T20:55:15.569Z,101133.50
2018-02-12T20:57:41.546Z,101138.53
2018-02-12T21:00:07.505Z,101140.19
2018-02-12T21:02:33.514Z,101138.38
2018-02-12T21:04:59.471Z,101139.89
2018-02-12T21:07:25.481Z,101143.31
2018-02-12T21:09:51.433Z,101141.36
2018-02-12T21:12:17.373Z,101140.50
2018-02-12T21:14:43.338Z,101140.12
2018-02-12T21:17:09.313Z,101146.03
2018-02-12T21:19:35.277Z,101144.14
2018-02-12T21:22:01.250Z,101145.05
2018-02-12T21:24:27.223Z,101150.43
2018-02-12T21:26:53.169Z,101139.06
2018-02-12T21:29:19.131Z,101141.55
2018-02-12T21:31:45.129Z,101137.71
2018-02-12T21:34:11.075Z,101136.02
2018-02-12T21:36:37.037Z,101137.75
2018-02-12T21:39:02.986Z,101137.54
2018-02-12T21:41:28.947Z,101131.11
2018-02-12T21:43:54.939Z,101135.05
2018-02-12T21:46:20.861Z,101141.09
2018-02-12T21:48:46.822Z,101139.19
2018-02-12T21:51:12.820Z,101134.27
2018-02-12T21:53:38.825Z,101141.98
2018-02-12T21:56:04.800Z,101140.85
2018-02-12T21:58:30.743Z,101137.80
2018-02-12T22:00:56.792Z,101137.43
2018-02-12T22:03:22.744Z,101132.53
2018-02-12T22:05:48.718Z,101134.80
2018-02-12T22:08:14.682Z,101133.70
2018-02-12T22:10:40.632Z,101139.19
2018-02-12T22:13:06.574Z,101134.80
2018-02-12T22:15:32.529Z,101134.60
2018-02-12T22:17:58.528Z,101135.96
2018-02-12T22:20:24.481Z,101132.73
2018-02-12T22:22:50.439Z,101132.13
2018-02-12T22:25:16.390Z,101132.88
2018-02-12T22:27:42.355Z,101135.02
2018-02-12T22:30:08.312Z,101128.48
2018-02-12T22:32:34.286Z,101129.94
2018-02-12T22:35:00.269Z,101127.09
2018-02-12T22:37:26.244Z,101125.55
2018-02-12T22:39:52.201Z,101125.09
2018-02-12T22:42:18.191Z,101129.94
2018-02-12T22:44:44.134Z,101132.66
2018-02-12T22:47:10.105Z,101129.08
2018-02-12T22:49:36.059Z,101127.23
2018-02-12T22:52:02.053Z,101122.08
2018-02-12T22:54:28.025Z,101127.49
2018-02-12T22:56:54.007Z,101125.73
2018-02-12T22:59:19.945Z,101122.72
2018-02-12T23:01:45.911Z,101120.42
2018-02-12T23:04:11.918Z,101122.45
2018-02-12T23:06:37.868Z,101123.28
2018-02-12T23:09:03.844Z,101125.50
2018-02-12T23:11:29.795Z,101119.71
2018-02-12T23:13:55.773Z,101122.42
2018-02-12T23:16:21.714Z,101124.48
2018-02-12T23:18:47.664Z,101121.47
2018-02-12T23:21:13.597Z,101120.39
2018-02-12T23:23:39.536Z,101126.06
2018-02-12T23:26:05.485Z,101127.64
2018-02-12T23:28:31.452Z,101123.58
2018-02-12T23:30:57.422Z,101123.28
2018-02-12T23:33:23.354Z,101122.61
2018-02-12T23:35:49.302Z,101123.09
2018-02-12T23:38:15.261Z,101124.34
2018-02-12T23:40:41.208Z,101128.28
2018-02-12T23:43:07.166Z,101123.51
2018-02-12T23:45:33.124Z,101124.25
2018-02-12T23:47:59.161Z,101128.13
2018-02-12T23:50:25.137Z,101125.61
2018-02-12T23:52:51.077Z,101122.27
2018-02-12T23:55:17.038Z,101119.97
2018-02-12T23:57:43.025Z,101116.52
